Time;durP1;ratioP1;P1;durP2;ratioP2;P2;SDS_P1;SDS_P2;PMS_P1;PMS_P2;Temp;Humidity;BMP_temperature;BMP_pressure;BME280_temperature;BME280_humidity;BME280_pressure;Samples;Min_cycle;Max_cycle;Signal;HPM_P1;HPM_P2
2023/10/24 00:00:13;;;;;;;;;;;;;;;20.95;44.41;100896.95;104343;1288;62124;-83
2023/10/24 00:02:39;;;;;;;;;;;;;;;20.94;44.37;100896.46;103955;1288;75329;-83
2023/10/24 00:05:05;;;;;;;;;;;;;;;20.95;44.41;100896.78;104077;1288;62132;-83
2023/10/24 00:07:30;;;;;;;;;;;;;;;20.94;44.30;100893.40;104318;1287;62087;-83
2023/10/24 00:09:56;;;;;;;;;;;;;;;20.95;44.34;100893.20;103892;1288;62275;-83
2023/10/24 00:12:21;;;;;;;;;;;;;;;20.94;44.37;100888.23;104074;1288;62217;-83
2023/10/24 00:14:47;;;;;;;;;;;;;;;20.95;44.31;100887.47;104368;1288;62058;-83
2023/10/24 00:17:12;;;;;;;;;;;;;;;20.94;44.33;100881.60;104047;1288;62217;-83
2023/10/24 00:19:38;;;;;;;;;;;;;;;20.94;44.36;100880.90;104075;1288;62142;-83
2023/10/24 00:22:03;;;;;;;;;;;;;;;20.94;44.22;100877.51;104020;1288;62205;-83
2023/10/24 00:24:29;;;;;;;;;;;;;;;20.94;44.33;100874.81;104225;1288;62083;-83
2023/10/24 00:26:57;;;;;;;;;;;;;;;20.94;44.40;100872.84;104130;1288;62214;-83
2023/10/24 00:29:22;;;;;;;;;;;;;;;20.93;44.39;100869.10;104120;1288;62150;-83
2023/10/24 00:31:48;;;;;;;;;;;;;;;20.93;44.20;100867.13;104207;1288;63375;-83
2023/10/24 00:34:13;;;;;;;;;;;;;;;20.93;44.25;100865.55;103994;1288;62148;-83
2023/10/24 00:36:40;;;;;;;;;;;;;;;20.93;44.31;100864.33;104044;1288;62370;-83
2023/10/24 00:39:06;;;;;;;;;;;;;;;20.93;44.34;100863.24;103948;1288;62166;-83
2023/10/24 00:41:32;;;;;;;;;;;;;;;20.92;44.29;100864.69;104167;1288;62071;-83
2023/10/24 00:43:57;;;;;;;;;;;;;;;20.93;44.24;100870.94;104077;1288;62254;-83
2023/10/24 00:46:23;;;;;;;;;;;;;;;20.93;44.20;100865.04;104035;1288;72363;-83
2023/10/24 00:48:49;;;;;;;;;;;;;;;20.92;44.31;100864.52;104062;1288;62284;-83
2023/10/24 00:51:14;;;;;;;;;;;;;;;20.93;44.34;100865.20;103944;1288;62196;-83
2023/10/24 00:53:40;;;;;;;;;;;;;;;20.92;44.27;100862.20;104240;1288;62186;-83
2023/10/24 00:56:05;;;;;;;;;;;;;;;20.92;44.30;100865.42;104129;1288;62122;-83
2023/10/24 00:58:31;;;;;;;;;;;;;;;20.92;44.26;100863.30;104262;1288;62310;-83
2023/10/24 01:00:56;;;;;;;;;;;;;;;20.92;44.40;100869.89;103996;1288;62110;-83
2023/10/24 01:03:22;;;;;;;;;;;;;;;20.93;44.23;100872.38;104207;1288;62183;-83
2023/10/24 01:05:48;;;;;;;;;;;;;;;20.92;44.28;100872.42;103985;1288;62121;-83
2023/10/24 01:08:13;;;;;;;;;;;;;;;20.93;44.23;100872.04;104041;1287;62350;-83
2023/10/24 01:10:38;;;;;;;;;;;;;;;20.92;44.18;100873.30;104101;1288;62217;-83
2023/10/24 01:13:04;;;;;;;;;;;;;;;20.92;44.29;100871.35;104251;1287;62169;-83
2023/10/24 01:15:29;;;;;;;;;;;;;;;20.92;44.33;100870.83;103858;1288;62221;-83
2023/10/24 01:17:55;;;;;;;;;;;;;;;20.92;44.28;100870.99;104172;1288;62152;-83
2023/10/24 01:20:21;;;;;;;;;;;;;;;20.92;44.38;100870.27;104226;1292;62115;-83
2023/10/24 01:22:46;;;;;;;;;;;;;;;20.92;44.32;100874.04;104229;1288;62197;-83
2023/10/24 01:25:13;;;;;;;;;;;;;;;20.92;44.21;100872.23;104091;1288;76279;-83
2023/10/24 01:27:38;;;;;;;;;;;;;;;20.92;44.21;100874.59;104074;1288;62158;-83
2023/10/24 01:30:04;;;;;;;;;;;;;;;20.92;44.34;100879.95;104005;1288;62224;-83
2023/10/24 01:32:30;;;;;;;;;;;;;;;20.92;44.34;100880.31;104023;1293;62246;-83
2023/10/24 01:34:56;;;;;;;;;;;;;;;20.92;44.24;100876.73;103901;1291;62113;-83
2023/10/24 01:37:21;;;;;;;;;;;;;;;20.92;44.36;100879.95;103864;1290;62194;-83
2023/10/24 01:39:47;;;;;;;;;;;;;;;20.92;44.35;100881.76;104067;1289;62274;-83
2023/10/24 01:42:12;;;;;;;;;;;;;;;20.91;44.14;100884.45;103765;1291;62680;-83
2023/10/24 01:44:38;;;;;;;;;;;;;;;20.92;44.29;100887.48;103859;1293;62219;-83
2023/10/24 01:47:03;;;;;;;;;;;;;;;20.91;44.20;100887.32;103961;1288;62189;-83
2023/10/24 01:49:29;;;;;;;;;;;;;;;20.92;44.29;100891.03;103874;1291;62176;-83
2023/10/24 01:51:54;;;;;;;;;;;;;;;20.92;44.28;100885.52;103927;1289;62106;-83
2023/10/24 01:54:20;;;;;;;;;;;;;;;20.91;44.25;100883.02;103897;1289;62195;-83
2023/10/24 01:56:45;;;;;;;;;;;;;;;20.91;44.35;100884.47;103881;1289;62244;-83
2023/10/24 01:59:10;;;;;;;;;;;;;;;20.91;44.13;100885.53;103935;1289;62192;-83
2023/10/24 02:01:36;;;;;;;;;;;;;;;20.91;44.32;100882.50;103945;1291;62237;-83
2023/10/24 02:04:01;;;;;;;;;;;;;;;20.91;44.26;100885.55;104007;1288;63275;-83
2023/10/24 02:06:27;;;;;;;;;;;;;;;20.91;44.30;100880.34;104024;1292;62081;-83
2023/10/24 02:08:53;;;;;;;;;;;;;;;20.91;44.22;100887.85;103965;1293;63788;-83
2023/10/24 02:11:19;;;;;;;;;;;;;;;20.91;44.22;100889.85;103777;1291;62150;-83
2023/10/24 02:13:44;;;;;;;;;;;;;;;20.91;44.30;100888.41;103944;1289;62196;-83
2023/10/24 02:16:10;;;;;;;;;;;;;;;20.91;44.08;100888.80;103940;1289;62623;-83
2023/10/24 02:18:36;;;;;;;;;;;;;;;20.91;44.33;100891.65;104002;1291;62599;-83
2023/10/24 02:21:05;;;;;;;;;;;;;;;20.91;44.21;100893.06;103797;1291;408199;-83
2023/10/24 02:23:31;;;;;;;;;;;;;;;20.91;44.18;100894.52;103799;1290;75052;-83
2023/10/24 02:25:56;;;;;;;;;;;;;;;20.91;44.15;100896.13;103800;1289;62198;-82
2023/10/24 02:28:22;;;;;;;;;;;;;;;20.90;44.20;100892.59;104037;1289;62083;-82
2023/10/24 02:30:48;;;;;;;;;;;;;;;20.90;44.25;100896.15;104021;1288;62665;-82
2023/10/24 02:33:13;;;;;;;;;;;;;;;20.90;44.29;100900.64;104214;1292;62180;-82
2023/10/24 02:35:39;;;;;;;;;;;;;;;20.90;44.33;100896.64;103880;1288;75984;-82
2023/10/24 02:38:06;;;;;;;;;;;;;;;20.90;44.09;100900.17;104006;1288;62203;-82
2023/10/24 02:40:31;;;;;;;;;;;;;;;20.90;44.14;100897.98;103897;1291;62195;-82
2023/10/24 02:42:57;;;;;;;;;;;;;;;20.90;44.20;100901.18;103831;1287;62132;-82
2023/10/24 02:45:23;;;;;;;;;;;;;;;20.90;44.27;100899.11;103824;1289;62144;-82
2023/10/24 02:47:49;;;;;;;;;;;;;;;20.90;44.28;100902.42;103985;1289;62207;-82
2023/10/24 02:50:14;;;;;;;;;;;;;;;20.90;44.41;100903.65;104079;1289;62106;-83
2023/10/24 02:52:40;;;;;;;;;;;;;;;20.90;44.17;100901.13;104125;1290;62167;-83
2023/10/24 02:55:05;;;;;;;;;;;;;;;20.90;44.05;100896.45;103957;1291;63370;-82
2023/10/24 02:57:31;;;;;;;;;;;;;;;20.90;44.15;100901.58;103928;1291;62689;-83
2023/10/24 02:59:56;;;;;;;;;;;;;;;20.90;44.33;100901.01;103825;1290;62195;-82
2023/10/24 03:02:22;;;;;;;;;;;;;;;20.89;44.29;100899.61;103813;1291;62077;-83
2023/10/24 03:04:48;;;;;;;;;;;;;;;20.89;44.21;100895.83;104128;1292;62278;-83
2023/10/24 03:07:13;;;;;;;;;;;;;;;20.88;44.21;100903.02;104227;1289;62168;-83
2023/10/24 03:09:39;;;;;;;;;;;;;;;20.90;44.30;100904.74;103954;1290;62110;-83
2023/10/24 03:12:09;;;;;;;;;;;;;;;20.90;44.27;100907.54;103989;1291;62186;-83
2023/10/24 03:14:35;;;;;;;;;;;;;;;20.90;44.06;100904.27;103803;1291;62040;-83
2023/10/24 03:17:00;;;;;;;;;;;;;;;20.90;44.45;100906.95;103906;1290;62119;-83
2023/10/24 03:19:27;;;;;;;;;;;;;;;20.90;44.19;100917.24;103936;1290;62234;-83
2023/10/24 03:21:53;;;;;;;;;;;;;;;20.90;44.18;100917.10;103842;1291;62137;-83
2023/10/24 03:24:19;;;;;;;;;;;;;;;20.90;44.24;100920.36;103784;1289;62038;-83
2023/10/24 03:26:45;;;;;;;;;;;;;;;20.88;44.27;100914.58;103757;1288;62118;-83
2023/10/24 03:29:10;;;;;;;;;;;;;;;20.88;44.25;100913.33;103718;1291;62320;-83
2023/10/24 03:31:36;;;;;;;;;;;;;;;20.87;44.25;100918.57;103758;1290;62154;-83
2023/10/24 03:34:01;;;;;;;;;;;;;;;20.86;44.19;100920.59;103737;1291;63137;-83
2023/10/24 03:36:27;;;;;;;;;;;;;;;20.87;44.11;100922.01;103919;1289;62210;-82
2023/10/24 03:38:52;;;;;;;;;;;;;;;20.87;44.24;100924.15;103863;1288;62180;-83
2023/10/24 03:41:18;;;;;;;;;;;;;;;20.86;44.20;100921.69;103944;1287;62167;-82
2023/10/24 03:43:49;;;;;;;;;;;;;;;20.86;44.25;100923.33;104084;1292;62226;-83
2023/10/24 03:46:15;;;;;;;;;;;;;;;20.80;44.14;100923.32;103808;1288;62213;-83
2023/10/24 03:48:40;;;;;;;;;;;;;;;20.75;44.02;100923.90;104036;1288;62194;-82
2023/10/24 03:51:06;;;;;;;;;;;;;;;20.70;44.01;100927.94;104147;1288;62167;-82
2023/10/24 03:53:31;;;;;;;;;;;;;;;20.66;43.95;100932.33;103733;1289;62269;-82
2023/10/24 03:56:00;;;;;;;;;;;;;;;20.61;43.97;100933.52;103920;1288;62519;-82
2023/10/24 03:58:26;;;;;;;;;;;;;;;20.58;43.92;100931.95;103931;1288;62195;-83
2023/10/24 04:00:51;;;;;;;;;;;;;;;20.54;43.93;100930.77;104124;1288;62191;-83
2023/10/24 04:03:17;;;;;;;;;;;;;;;20.53;43.80;100929.10;104104;1288;62208;-83
2023/10/24 04:05:42;;;;;;;;;;;;;;;20.51;43.90;100935.30;103898;1288;62211;-82
2023/10/24 04:08:09;;;;;;;;;;;;;;;20.50;43.83;100944.10;103750;1288;62356;-82
2023/10/24 04:10:34;;;;;;;;;;;;;;;20.50;43.94;100941.63;103859;1288;62025;-82
2023/10/24 04:13:01;;;;;;;;;;;;;;;20.50;44.00;100943.20;103780;1288;62150;-82
2023/10/24 04:15:27;;;;;;;;;;;;;;;20.50;43.86;100944.07;103831;1288;62205;-82
2023/10/24 04:17:53;;;;;;;;;;;;;;;20.50;43.75;100939.65;103778;1287;62119;-82
2023/10/24 04:20:18;;;;;;;;;;;;;;;20.49;43.71;100940.75;103660;1288;62263;-82
2023/10/24 04:22:44;;;;;;;;;;;;;;;20.49;43.55;100943.06;103653;1287;62160;-82
2023/10/24 04:25:09;;;;;;;;;;;;;;;20.49;43.69;100942.02;103654;1288;62285;-83
2023/10/24 04:27:36;;;;;;;;;;;;;;;20.48;43.56;100942.42;103760;1291;62165;-83
2023/10/24 04:30:03;;;;;;;;;;;;;;;20.48;43.54;100936.89;103783;1287;75038;-82
2023/10/24 04:32:29;;;;;;;;;;;;;;;20.47;43.60;100936.60;103757;1288;62218;-82
2023/10/24 04:34:54;;;;;;;;;;;;;;;20.47;43.56;100943.60;103682;1292;62152;-82
2023/10/24 04:37:20;;;;;;;;;;;;;;;20.46;43.49;100947.75;103669;1293;62250;-82
2023/10/24 04:39:45;;;;;;;;;;;;;;;20.45;43.45;100948.92;104001;1292;62154;-82
2023/10/24 04:42:10;;;;;;;;;;;;;;;20.44;43.39;100949.14;104008;1288;62192;-82
2023/10/24 04:44:36;;;;;;;;;;;;;;;20.45;43.37;100951.61;104013;1288;62221;-82
2023/10/24 04:47:01;;;;;;;;;;;;;;;20.45;43.35;100951.95;104030;1288;62261;-82
2023/10/24 04:49:27;;;;;;;;;;;;;;;20.46;43.48;100956.39;104387;1288;62167;-81
2023/10/24 04:51:52;;;;;;;;;;;;;;;20.46;43.45;100960.50;104814;1288;62199;-81
2023/10/24 04:54:18;;;;;;;;;;;;;;;20.46;43.39;100965.15;104393;1288;75075;-81
2023/10/24 04:56:43;;;;;;;;;;;;;;;20.43;43.38;100969.39;104446;1288;62135;-81
2023/10/24 04:59:09;;;;;;;;;;;;;;;20.42;43.37;100972.35;104424;1288;62181;-81
2023/10/24 05:01:37;;;;;;;;;;;;;;;20.37;43.39;100973.52;104291;1288;62132;-81
2023/10/24 05:04:04;;;;;;;;;;;;;;;20.35;43.29;100976.73;104490;1293;61974;-81
2023/10/24 05:06:29;;;;;;;;;;;;;;;20.34;43.22;100980.34;104479;1288;62179;-81
2023/10/24 05:08:55;;;;;;;;;;;;;;;20.35;43.42;100986.21;104422;1288;62209;-81
2023/10/24 05:11:21;;;;;;;;;;;;;;;20.36;43.44;100993.12;104678;1288;62261;-82
2023/10/24 05:13:46;;;;;;;;;;;;;;;20.36;43.35;100999.36;104796;1286;62116;-81
2023/10/24 05:16:12;;;;;;;;;;;;;;;20.36;43.23;101000.44;104745;1288;62193;-81
2023/10/24 05:18:37;;;;;;;;;;;;;;;20.36;43.26;101009.71;104542;1290;62244;-81
2023/10/24 05:21:03;;;;;;;;;;;;;;;20.35;43.08;101024.30;104258;1288;62057;-81
2023/10/24 05:23:29;;;;;;;;;;;;;;;20.31;43.19;101039.77;104503;1290;62130;-82
2023/10/24 05:25:55;;;;;;;;;;;;;;;20.31;43.22;101057.43;104404;1288;62146;-81
2023/10/24 05:28:20;;;;;;;;;;;;;;;20.32;43.16;101070.59;104301;1293;62294;-82
2023/10/24 05:30:46;;;;;;;;;;;;;;;20.32;43.30;101067.36;104639;1288;62186;-81
2023/10/24 05:33:11;;;;;;;;;;;;;;;20.27;43.06;101054.47;104681;1290;62251;-81
2023/10/24 05:35:38;;;;;;;;;;;;;;;20.17;43.10;101040.08;104475;1291;62135;-81
2023/10/24 05:38:04;;;;;;;;;;;;;;;20.17;43.07;101044.21;104346;1290;62195;-81
2023/10/24 05:40:30;;;;;;;;;;;;;;;20.18;43.15;101036.11;104784;1288;62306;-81
2023/10/24 05:42:55;;;;;;;;;;;;;;;20.17;43.12;101029.54;104593;1288;62109;-81
2023/10/24 05:45:23;;;;;;;;;;;;;;;20.14;43.00;101027.75;104694;1287;62500;-81
2023/10/24 05:47:49;;;;;;;;;;;;;;;20.14;43.01;101029.05;104649;1288;62512;-81
2023/10/24 05:50:17;;;;;;;;;;;;;;;20.11;42.98;101029.89;104792;1286;62216;-80
2023/10/24 05:52:42;;;;;;;;;;;;;;;20.10;43.13;101034.26;104884;1288;62092;-81
2023/10/24 05:55:08;;;;;;;;;;;;;;;20.07;43.05;101035.68;104888;1288;62177;-81
2023/10/24 05:57:35;;;;;;;;;;;;;;;20.02;42.94;101041.20;105268;1290;62117;-82
2023/10/24 06:00:01;;;;;;;;;;;;;;;19.82;43.01;101033.67;104925;1288;61940;-81
2023/10/24 06:02:26;;;;;;;;;;;;;;;19.76;43.14;101040.42;104846;1288;62135;-82
2023/10/24 06:04:52;;;;;;;;;;;;;;;19.78;43.10;101038.17;105019;1286;62182;-81
2023/10/24 06:07:18;;;;;;;;;;;;;;;19.80;43.06;101036.30;104748;1286;72476;-81
2023/10/24 06:09:43;;;;;;;;;;;;;;;19.77;43.09;101042.01;105040;1287;62106;-81
2023/10/24 06:12:10;;;;;;;;;;;;;;;19.78;43.02;101049.84;106433;1286;59347;-81
2023/10/24 06:14:35;;;;;;;;;;;;;;;19.79;43.11;101050.65;106460;1286;59212;-81
2023/10/24 06:17:01;;;;;;;;;;;;;;;19.83;42.97;101055.61;106219;1288;59755;-81
2023/10/24 06:19:26;;;;;;;;;;;;;;;19.88;43.17;101062.42;106382;1286;59768;-81
2023/10/24 06:21:52;;;;;;;;;;;;;;;19.93;43.13;101065.90;106202;1288;74042;-81
2023/10/24 06:24:18;;;;;;;;;;;;;;;19.96;42.93;101068.36;106327;1289;60179;-81
2023/10/24 06:26:43;;;;;;;;;;;;;;;19.99;42.94;101070.86;106398;1286;59278;-82
2023/10/24 06:29:09;;;;;;;;;;;;;;;20.02;42.76;101070.36;106548;1287;60220;-81
2023/10/24 06:31:35;;;;;;;;;;;;;;;20.03;42.83;101065.58;106335;1291;59346;-81
2023/10/24 06:34:03;;;;;;;;;;;;;;;20.05;43.03;101060.98;106493;1287;60171;-82
2023/10/24 06:36:28;;;;;;;;;;;;;;;20.08;42.90;101061.52;106455;1289;59727;-82
2023/10/24 06:38:54;;;;;;;;;;;;;;;20.11;42.74;101062.98;106485;1286;59593;-82
2023/10/24 06:41:20;;;;;;;;;;;;;;;20.12;42.87;101066.66;106628;1286;60117;-82
2023/10/24 06:43:45;;;;;;;;;;;;;;;20.14;42.73;101063.17;105638;1287;75226;-81
2023/10/24 06:46:10;;;;;;;;;;;;;;;20.14;42.68;101064.20;105117;1288;62111;-81
2023/10/24 06:48:36;;;;;;;;;;;;;;;20.15;42.75;101059.66;105364;1288;62243;-82
2023/10/24 06:51:02;;;;;;;;;;;;;;;20.16;42.75;101058.88;105562;1288;60277;-81
2023/10/24 06:53:28;;;;;;;;;;;;;;;20.18;42.68;101056.46;105592;1286;61898;-82
2023/10/24 06:56:03;;;;;;;;;;;;;;;20.19;42.50;101055.46;105149;1288;62140;-81
2023/10/24 06:58:28;;;;;;;;;;;;;;;20.15;42.64;101055.37;105081;1288;62310;-81
2023/10/24 07:00:54;;;;;;;;;;;;;;;19.97;42.42;101057.05;105019;1286;62198;-81
2023/10/24 07:03:20;;;;;;;;;;;;;;;19.87;42.44;101059.64;104990;1288;60223;-81
2023/10/24 07:05:50;;;;;;;;;;;;;;;19.86;42.51;101061.14;105232;1291;60117;-81
2023/10/24 07:08:16;;;;;;;;;;;;;;;19.79;42.35;101055.61;104960;1290;62169;-81
2023/10/24 07:10:41;;;;;;;;;;;;;;;19.68;42.35;101056.68;104977;1288;59714;-80
2023/10/24 07:13:06;;;;;;;;;;;;;;;19.61;42.52;101058.70;104785;1288;62208;-80
2023/10/24 07:15:32;;;;;;;;;;;;;;;19.59;42.53;101064.00;104728;1286;62821;-80
2023/10/24 07:17:57;;;;;;;;;;;;;;;19.56;42.48;101067.20;105061;1289;62189;-80
2023/10/24 07:20:23;;;;;;;;;;;;;;;19.59;42.45;101057.72;104943;1286;62207;-80
2023/10/24 07:22:48;;;;;;;;;;;;;;;19.55;42.47;101048.88;105108;1288;59463;-80
2023/10/24 07:25:14;;;;;;;;;;;;;;;19.39;42.45;101046.42;104987;1286;62116;-82
2023/10/24 07:27:40;;;;;;;;;;;;;;;19.28;42.51;101039.08;105158;1287;60307;-81
2023/10/24 07:30:09;;;;;;;;;;;;;;;19.27;42.47;101036.98;105057;1286;63158;-81
2023/10/24 07:32:34;;;;;;;;;;;;;;;19.25;42.57;101034.98;105261;1289;62078;-82
2023/10/24 07:35:00;;;;;;;;;;;;;;;19.32;42.52;101037.94;105365;1289;62387;-81
2023/10/24 07:37:25;;;;;;;;;;;;;;;19.18;42.40;101034.84;104956;1294;60167;-81
2023/10/24 07:39:51;;;;;;;;;;;;;;;19.03;42.64;101033.05;104765;1289;62279;-81
2023/10/24 07:42:16;;;;;;;;;;;;;;;19.09;42.78;101025.38;104746;1288;62101;-81
2023/10/24 07:44:42;;;;;;;;;;;;;;;19.23;42.83;101017.07;104920;1291;62157;-81
2023/10/24 07:47:07;;;;;;;;;;;;;;;19.31;42.88;101014.09;104632;1294;62208;-81
2023/10/24 07:49:34;;;;;;;;;;;;;;;19.37;42.54;101008.22;104736;1289;62222;-81
2023/10/24 07:52:00;;;;;;;;;;;;;;;19.42;42.67;101002.35;105067;1288;61271;-82
2023/10/24 07:54:26;;;;;;;;;;;;;;;19.51;42.45;101009.13;104916;1291;62186;-81
2023/10/24 07:56:51;;;;;;;;;;;;;;;19.44;42.47;101014.39;104689;1289;62177;-80
2023/10/24 07:59:18;;;;;;;;;;;;;;;19.41;42.65;101013.87;104666;1288;62142;-80
2023/10/24 08:01:44;;;;;;;;;;;;;;;19.43;42.64;101016.57;104769;1289;75452;-79
2023/10/24 08:04:09;;;;;;;;;;;;;;;19.46;42.54;101014.79;105016;1290;62070;-80
2023/10/24 08:06:35;;;;;;;;;;;;;;;19.50;42.58;101015.23;104842;1291;61077;-80
2023/10/24 08:09:00;;;;;;;;;;;;;;;19.53;42.38;101010.43;104810;1292;62194;-80
2023/10/24 08:11:26;;;;;;;;;;;;;;;19.61;42.57;101009.25;104888;1293;60215;-80
2023/10/24 08:13:51;;;;;;;;;;;;;;;19.70;42.60;101007.23;104787;1293;62209;-80
2023/10/24 08:16:17;;;;;;;;;;;;;;;19.79;42.63;101011.38;104608;1286;59809;-80
2023/10/24 08:18:44;;;;;;;;;;;;;;;19.85;42.46;101010.26;104712;1290;62216;-80
2023/10/24 08:21:12;;;;;;;;;;;;;;;19.91;42.57;101009.19;104572;1286;62069;-80
2023/10/24 08:23:38;;;;;;;;;;;;;;;19.94;42.30;101008.85;104598;1288;75157;-80
2023/10/24 08:26:03;;;;;;;;;;;;;;;19.93;42.47;101007.29;104845;1286;62118;-80
2023/10/24 08:28:29;;;;;;;;;;;;;;;19.88;42.36;101003.27;104707;1286;62197;-80
2023/10/24 08:30:55;;;;;;;;;;;;;;;19.92;42.33;101003.26;104796;1290;62031;-80
2023/10/24 08:33:22;;;;;;;;;;;;;;;19.90;42.25;101006.03;104353;1292;62220;-80
2023/10/24 08:35:48;;;;;;;;;;;;;;;19.89;42.35;101007.14;104057;1290;62102;-80
2023/10/24 08:38:14;;;;;;;;;;;;;;;19.91;42.45;101011.14;104178;1288;62114;-80
2023/10/24 08:40:40;;;;;;;;;;;;;;;19.93;42.31;101003.34;104004;1288;62134;-80
2023/10/24 08:43:05;;;;;;;;;;;;;;;19.97;42.34;100997.23;103868;1291;72553;-80
2023/10/24 08:45:31;;;;;;;;;;;;;;;20.00;42.36;100994.33;104616;1288;62192;-80
2023/10/24 08:47:57;;;;;;;;;;;;;;;20.00;42.16;100993.25;104115;1288;62115;-80
2023/10/24 08:50:22;;;;;;;;;;;;;;;19.92;42.37;100987.52;104135;1288;63393;-80
2023/10/24 08:52:48;;;;;;;;;;;;;;;19.85;42.34;100979.16;104260;1293;62306;-80
2023/10/24 08:55:13;;;;;;;;;;;;;;;19.85;42.44;100980.44;104358;1293;71338;-80
2023/10/24 08:57:41;;;;;;;;;;;;;;;19.89;42.42;100979.88;104197;1288;63283;-80
2023/10/24 09:00:11;;;;;;;;;;;;;;;19.93;42.70;100983.71;104498;1286;62034;-81
2023/10/24 09:02:38;;;;;;;;;;;;;;;19.99;42.69;100983.32;104447;1291;62518;-81
2023/10/24 09:05:06;;;;;;;;;;;;;;;20.03;42.57;100982.69;104338;1291;72265;-81
2023/10/24 09:07:32;;;;;;;;;;;;;;;20.07;42.47;100980.67;104315;1294;62118;-80
2023/10/24 09:09:57;;;;;;;;;;;;;;;20.13;42.67;100982.81;104443;1291;62185;-80
2023/10/24 09:12:23;;;;;;;;;;;;;;;20.15;42.64;100983.20;104351;1289;62287;-81
2023/10/24 09:14:49;;;;;;;;;;;;;;;20.14;42.68;100980.39;104225;1289;62122;-81
2023/10/24 09:17:17;;;;;;;;;;;;;;;20.11;42.65;100979.15;104222;1294;62291;-80
2023/10/24 09:19:43;;;;;;;;;;;;;;;20.11;42.63;100972.73;104195;1289;75250;-81
2023/10/24 09:22:10;;;;;;;;;;;;;;;20.14;42.66;100971.86;104692;1289;62162;-81
2023/10/24 09:24:37;;;;;;;;;;;;;;;20.16;42.50;100966.70;104575;1289;61965;-81
2023/10/24 09:27:02;;;;;;;;;;;;;;;20.19;42.62;100960.06;104593;1289;62293;-81
2023/10/24 09:29:28;;;;;;;;;;;;;;;20.22;42.51;100953.60;104281;1290;62120;-81
2023/10/24 09:31:57;;;;;;;;;;;;;;;20.24;42.57;100955.27;104358;1289;63406;-81
2023/10/24 09:34:23;;;;;;;;;;;;;;;20.23;42.36;100949.24;104524;1289;62216;-81
2023/10/24 09:36:49;;;;;;;;;;;;;;;20.22;42.61;100946.85;104333;1294;62107;-81
2023/10/24 09:39:15;;;;;;;;;;;;;;;20.23;42.60;100945.00;104630;1288;62100;-81
2023/10/24 09:41:44;;;;;;;;;;;;;;;20.24;42.52;100936.88;104823;1289;62136;-81
2023/10/24 09:44:10;;;;;;;;;;;;;;;20.24;42.60;100936.15;104788;1288;61924;-81
2023/10/24 09:46:36;;;;;;;;;;;;;;;20.24;42.61;100930.58;104593;1288;62223;-81
2023/10/24 09:49:02;;;;;;;;;;;;;;;20.28;42.61;100927.86;104849;1288;62169;-81
2023/10/24 09:51:27;;;;;;;;;;;;;;;20.32;42.64;100923.88;104677;1288;62163;-81
2023/10/24 09:53:52;;;;;;;;;;;;;;;20.35;42.58;100919.36;104755;1292;62136;-81
2023/10/24 09:56:19;;;;;;;;;;;;;;;20.37;42.38;100910.82;105185;1288;62090;-81
2023/10/24 09:58:45;;;;;;;;;;;;;;;20.38;42.57;100908.94;104945;1287;72619;-82
2023/10/24 10:01:10;;;;;;;;;;;;;;;20.40;42.71;100909.53;105029;1288;62203;-81
2023/10/24 10:03:36;;;;;;;;;;;;;;;20.43;42.54;100909.20;104699;1288;62169;-81
2023/10/24 10:06:08;;;;;;;;;;;;;;;20.44;42.66;100909.45;104873;1287;62177;-81
2023/10/24 10:08:37;;;;;;;;;;;;;;;20.45;42.66;100908.50;104894;1292;72591;-82
2023/10/24 10:11:03;;;;;;;;;;;;;;;20.47;42.74;100904.65;104873;1289;75340;-81
2023/10/24 10:13:30;;;;;;;;;;;;;;;20.48;42.65;100899.77;104850;1290;63999;-81
2023/10/24 10:16:12;;;;;;;;;;;;;;;20.49;42.74;100897.66;104889;1293;62124;-82
2023/10/24 10:18:56;;;;;;;;;;;;;;;20.51;42.79;100892.73;105365;1287;72192;-82
2023/10/24 10:21:32;;;;;;;;;;;;;;;20.52;42.66;100893.55;105113;1290;75151;-81
2023/10/24 10:24:17;;;;;;;;;;;;;;;20.54;42.76;100887.34;106497;1288;59983;-81
2023/10/24 10:27:06;;;;;;;;;;;;;;;20.54;42.66;100891.83;105530;1287;62119;-81
2023/10/24 10:29:47;;;;;;;;;;;;;;;20.55;42.73;100898.89;105026;1289;72659;-82
2023/10/24 10:32:25;;;;;;;;;;;;;;;20.57;42.70;100896.95;104659;1288;75296;-81
2023/10/24 10:34:51;;;;;;;;;;;;;;;20.58;42.86;100897.29;104835;1289;61993;-82
2023/10/24 10:37:17;;;;;;;;;;;;;;;20.58;42.73;100895.67;104475;1288;62111;-81
2023/10/24 10:39:42;;;;;;;;;;;;;;;20.58;42.72;100892.96;105104;1292;62191;-82
2023/10/24 10:44:52;;;;;;;;;;;;;;;20.62;42.79;100885.02;105478;1296;59951;-80
2023/10/24 10:47:18;;;;;;;;;;;;;;;20.63;42.81;100881.53;105120;1291;62132;-82
2023/10/24 10:49:53;;;;;;;;;;;;;;;20.65;42.80;100878.94;105306;1292;59887;-82
2023/10/24 10:52:37;;;;;;;;;;;;;;;20.66;42.88;100872.38;104997;1293;75062;-82
2023/10/24 10:55:12;;;;;;;;;;;;;;;20.68;42.81;100866.36;105220;1293;61990;-82
2023/10/24 10:57:40;;;;;;;;;;;;;;;20.69;42.77;100866.48;105228;1292;62241;-82
2023/10/24 11:00:08;;;;;;;;;;;;;;;20.70;42.91;100859.98;105022;1293;72276;-82
2023/10/24 11:02:42;;;;;;;;;;;;;;;20.71;42.78;100854.91;105050;1292;75527;-83
2023/10/24 11:05:28;;;;;;;;;;;;;;;20.73;42.76;100847.28;104703;1293;62045;-82
2023/10/24 11:07:58;;;;;;;;;;;;;;;20.74;42.72;100845.77;104282;1293;62081;-81
2023/10/24 11:10:23;;;;;;;;;;;;;;;20.75;42.82;100841.05;104613;1291;72407;-82
2023/10/24 11:12:49;;;;;;;;;;;;;;;20.76;42.82;100843.66;104198;1291;62960;-81
2023/10/24 11:15:17;;;;;;;;;;;;;;;20.77;42.86;100842.36;104332;1292;62184;-81
2023/10/24 11:17:43;;;;;;;;;;;;;;;20.77;42.65;100840.36;103810;1293;62098;-81
2023/10/24 11:20:12;;;;;;;;;;;;;;;20.78;42.79;100835.33;103625;1292;72316;-81
2023/10/24 11:22:37;;;;;;;;;;;;;;;20.78;42.73;100833.52;104113;1293;62103;-81
2023/10/24 11:25:10;;;;;;;;;;;;;;;20.79;42.69;100831.52;104186;1292;62193;-81
2023/10/24 11:27:36;;;;;;;;;;;;;;;20.79;42.80;100829.55;104020;1293;62117;-81
2023/10/24 11:30:02;;;;;;;;;;;;;;;20.79;42.78;100829.36;104110;1292;62180;-81
2023/10/24 11:32:28;;;;;;;;;;;;;;;20.80;42.63;100829.31;104184;1292;62233;-81
2023/10/24 11:34:56;;;;;;;;;;;;;;;20.79;42.81;100829.69;104267;1293;62116;-81
2023/10/24 11:37:22;;;;;;;;;;;;;;;20.80;42.66;100821.78;104242;1292;62225;-81
2023/10/24 11:39:47;;;;;;;;;;;;;;;20.80;42.78;100819.05;104311;1293;62084;-81
2023/10/24 11:42:13;;;;;;;;;;;;;;;20.81;42.73;100818.15;104362;1293;62236;-81
2023/10/24 11:44:41;;;;;;;;;;;;;;;20.81;42.85;100817.41;104234;1293;62100;-81
2023/10/24 11:47:13;;;;;;;;;;;;;;;20.82;42.77;100820.73;104131;1292;62115;-81
2023/10/24 11:49:39;;;;;;;;;;;;;;;20.83;42.96;100819.24;104598;1293;72350;-81
2023/10/24 11:52:05;;;;;;;;;;;;;;;20.83;43.00;100817.25;104460;1294;75119;-81
2023/10/24 11:54:31;;;;;;;;;;;;;;;20.84;42.88;100819.66;104373;1293;62040;-81
2023/10/24 11:56:56;;;;;;;;;;;;;;;20.85;43.05;100820.55;104562;1293;61936;-81
2023/10/24 11:59:22;;;;;;;;;;;;;;;20.84;42.96;100814.33;104500;1293;62203;-81
2023/10/24 12:01:47;;;;;;;;;;;;;;;20.85;43.15;100814.82;104357;1292;60965;-81
2023/10/24 12:04:13;;;;;;;;;;;;;;;20.85;43.12;100806.54;104337;1292;75136;-81
2023/10/24 12:06:38;;;;;;;;;;;;;;;20.86;43.02;100805.45;104183;1293;62240;-81
2023/10/24 12:09:04;;;;;;;;;;;;;;;20.86;43.10;100797.52;104035;1294;62254;-81
2023/10/24 12:11:36;;;;;;;;;;;;;;;20.87;43.08;100791.58;104095;1293;62130;-81
2023/10/24 12:14:02;;;;;;;;;;;;;;;20.88;43.05;100780.77;104077;1296;76442;-81
2023/10/24 12:16:30;;;;;;;;;;;;;;;20.88;43.03;100776.65;104213;1296;62203;-81
2023/10/24 12:18:57;;;;;;;;;;;;;;;20.90;42.99;100772.21;103937;1296;62215;-81
2023/10/24 12:21:22;;;;;;;;;;;;;;;20.90;42.88;100764.94;104171;1298;59759;-81
2023/10/24 12:23:48;;;;;;;;;;;;;;;20.90;43.00;100762.91;103815;1293;62302;-81